createdAt,value
2022-10-28T00:01:29.986Z,101076.56
2022-10-28T00:04:00.360Z,101075.47
2022-10-28T00:06:34.476Z,101077.16
2022-10-28T00:09:03.792Z,101075.06
2022-10-28T00:11:34.691Z,101079.34
2022-10-28T00:14:07.329Z,101075.81
2022-10-28T00:16:40.340Z,101063.44
2022-10-28T00:19:11.071Z,101073.38
2022-10-28T00:21:43.878Z,101072.19
2022-10-28T00:24:14.494Z,101064.25
2022-10-28T00:26:46.344Z,101071.16
2022-10-28T00:29:16.291Z,101059.72
2022-10-28T00:31:47.311Z,101059.91
2022-10-28T00:34:19.822Z,101062.81
2022-10-28T00:36:48.094Z,101059.81
2022-10-28T00:39:21.089Z,101052.50
2022-10-28T00:41:55.407Z,101053.47
2022-10-28T00:44:53.532Z,101050.41
2022-10-28T00:47:57.655Z,101046.81
2022-10-28T00:50:41.214Z,101045.16
2022-10-28T00:53:14.673Z,101042.47
2022-10-28T00:55:45.256Z,101031.34
2022-10-28T00:58:12.816Z,101035.31
2022-10-28T01:00:40.678Z,101040.13
2022-10-28T01:03:10.608Z,101040.13
2022-10-28T01:05:41.753Z,101032.69
2022-10-28T01:08:09.517Z,101031.34
2022-10-28T01:10:54.818Z,101036.38
2022-10-28T01:13:37.144Z,101034.56
2022-10-28T01:16:35.578Z,101016.81
2022-10-28T01:19:36.625Z,101030.47
2022-10-28T01:22:03.913Z,101022.03
2022-10-28T01:24:43.405Z,101021.59
2022-10-28T01:27:37.955Z,101022.06
2022-10-28T01:30:21.552Z,101019.25
2022-10-28T01:32:58.499Z,101015.47
2022-10-28T01:35:54.274Z,101019.88
2022-10-28T01:39:00.269Z,101014.22
2022-10-28T01:41:34.229Z,101012.94
2022-10-28T01:44:20.889Z,101011.72
2022-10-28T01:47:20.304Z,101008.66
2022-10-28T01:50:05.714Z,101008.84
2022-10-28T01:52:33.330Z,101014.09
2022-10-28T01:55:11.924Z,101002.63
2022-10-28T01:57:42.105Z,100997.25
2022-10-28T02:00:13.792Z,100991.31
2022-10-28T02:02:45.173Z,100982.13
2022-10-28T02:05:45.029Z,100989.13
2022-10-28T02:08:21.087Z,100995.19
2022-10-28T02:11:22.673Z,100989.06
2022-10-28T02:14:10.337Z,100988.66
2022-10-28T02:16:51.648Z,100987.81
2022-10-28T02:19:39.095Z,100983.25
2022-10-28T02:22:18.601Z,100980.91
2022-10-28T02:24:48.459Z,100976.75
2022-10-28T02:27:32.466Z,100975.44
2022-10-28T02:30:15.424Z,100980.50
2022-10-28T02:32:46.935Z,100976.84
2022-10-28T02:35:25.051Z,100966.78
2022-10-28T02:37:54.129Z,100973.53
2022-10-28T02:40:27.968Z,100974.69
2022-10-28T02:43:00.021Z,100962.81
2022-10-28T02:45:33.311Z,100977.19
2022-10-28T02:48:07.482Z,100968.84
2022-10-28T02:50:38.234Z,100965.94
2022-10-28T02:53:14.662Z,100967.47
2022-10-28T02:55:44.940Z,100964.16
2022-10-28T02:58:12.487Z,100949.69
2022-10-28T03:00:44.948Z,100949.50
2022-10-28T03:03:12.943Z,100952.13
2022-10-28T03:05:42.839Z,100950.50
2022-10-28T03:08:10.227Z,100948.38
2022-10-28T03:10:37.356Z,100939.75
2022-10-28T03:13:04.695Z,100936.81
2022-10-28T03:15:31.927Z,100932.28
2022-10-28T03:17:59.295Z,100936.81
2022-10-28T03:20:26.419Z,100941.63
2022-10-28T03:22:53.988Z,100933.59
2022-10-28T03:25:21.412Z,100922.00
2022-10-28T03:27:48.754Z,100922.00
2022-10-28T03:30:18.502Z,100928.16
2022-10-28T03:32:45.953Z,100923.63
2022-10-28T03:35:13.235Z,100916.09
2022-10-28T03:37:44.439Z,100920.84
2022-10-28T03:40:12.300Z,100922.38
2022-10-28T03:42:42.644Z,100918.38
2022-10-28T03:45:10.268Z,100920.94
2022-10-28T03:47:37.743Z,100919.03
2022-10-28T03:50:05.136Z,100919.72
2022-10-28T03:52:33.107Z,100917.59
2022-10-28T03:55:00.289Z,100914.78
2022-10-28T03:57:31.657Z,100918.72
2022-10-28T03:59:59.036Z,100910.97
2022-10-28T04:02:26.963Z,100906.50
2022-10-28T04:04:54.272Z,100906.19
2022-10-28T04:07:21.750Z,100902.31
2022-10-28T04:09:51.469Z,100901.50
2022-10-28T04:12:19.228Z,100902.34
2022-10-28T04:14:46.476Z,100907.34
2022-10-28T04:17:14.006Z,100894.88
2022-10-28T04:19:41.145Z,100900.84
2022-10-28T04:22:09.815Z,100888.91
2022-10-28T04:24:36.990Z,100882.41
2022-10-28T04:27:04.491Z,100873.50
2022-10-28T04:29:32.186Z,100877.44
2022-10-28T04:31:59.717Z,100872.47
2022-10-28T04:34:27.273Z,100869.97
2022-10-28T04:36:54.703Z,100873.31
2022-10-28T04:39:21.859Z,100864.34
2022-10-28T04:41:49.315Z,100868.38
2022-10-28T04:44:16.552Z,100863.88
2022-10-28T04:46:44.960Z,100863.88
2022-10-28T04:49:12.659Z,100865.38
2022-10-28T04:51:41.564Z,100852.94
2022-10-28T04:54:11.406Z,100849.53
2022-10-28T04:56:38.801Z,100849.56
2022-10-28T04:59:05.947Z,100851.63
2022-10-28T05:01:33.629Z,100844.13
2022-10-28T05:04:00.906Z,100853.50
2022-10-28T05:06:28.267Z,100840.72
2022-10-28T05:08:55.736Z,100837.91
2022-10-28T05:11:23.156Z,100835.59
2022-10-28T05:13:53.123Z,100840.41
2022-10-28T05:16:20.871Z,100838.75
2022-10-28T05:18:48.350Z,100835.47
2022-10-28T05:21:15.784Z,100841.69
2022-10-28T05:23:43.094Z,100844.00
2022-10-28T05:26:13.183Z,100842.38
2022-10-28T05:28:40.400Z,100832.16
2022-10-28T05:31:07.829Z,100826.56
2022-10-28T05:33:35.107Z,100821.44
2022-10-28T05:36:02.519Z,100809.47
2022-10-28T05:38:29.768Z,100817.91
2022-10-28T05:40:57.151Z,100821.22
2022-10-28T05:43:24.422Z,100823.41
2022-10-28T05:45:53.087Z,100820.97
2022-10-28T05:48:20.225Z,100817.06
2022-10-28T05:50:47.647Z,100810.84
2022-10-28T05:53:15.295Z,100815.50
2022-10-28T05:55:46.681Z,100808.31
2022-10-28T05:58:15.581Z,100803.78
2022-10-28T06:00:42.936Z,100818.88
2022-10-28T06:03:12.287Z,100820.22
2022-10-28T06:05:42.388Z,100823.78
2022-10-28T06:08:11.434Z,100837.91
2022-10-28T06:10:39.006Z,100835.72
2022-10-28T06:13:05.264Z,100825.59
2022-10-28T06:15:32.749Z,100836.34
2022-10-28T06:18:00.009Z,100836.22
2022-10-28T06:20:27.439Z,100832.94
2022-10-28T06:22:55.733Z,100835.09
2022-10-28T06:25:25.327Z,100841.81
2022-10-28T06:27:57.698Z,100831.09
2022-10-28T06:30:26.354Z,100827.41
2022-10-28T06:32:56.815Z,100811.69
2022-10-28T06:35:24.304Z,100816.28
2022-10-28T06:37:57.562Z,100824.72
2022-10-28T06:40:25.749Z,100818.50
2022-10-28T06:43:00.122Z,100809.81
2022-10-28T06:45:28.966Z,100807.28
2022-10-28T06:48:04.030Z,100814.56
2022-10-28T06:50:33.815Z,100805.63
2022-10-28T06:53:01.232Z,100814.28
2022-10-28T06:55:29.474Z,100801.47
2022-10-28T06:58:03.410Z,100816.91
2022-10-28T07:00:37.714Z,100804.19
2022-10-28T07:03:05.748Z,100801.47
2022-10-28T07:05:35.716Z,100804.25
2022-10-28T07:08:02.910Z,100796.38
2022-10-28T07:10:30.447Z,100800.25
2022-10-28T07:12:57.984Z,100801.78
2022-10-28T07:15:25.470Z,100801.47
2022-10-28T07:17:53.996Z,100805.06
2022-10-28T07:20:22.511Z,100807.16
2022-10-28T07:22:59.395Z,100814.09
2022-10-28T07:25:28.952Z,100821.78
2022-10-28T07:27:59.734Z,100820.19
2022-10-28T07:30:28.702Z,100821.28
2022-10-28T07:32:58.628Z,100819.41
2022-10-28T07:35:26.073Z,100820.44
2022-10-28T07:37:53.946Z,100814.28
2022-10-28T07:40:24.125Z,100814.16
2022-10-28T07:42:51.729Z,100811.03
2022-10-28T07:45:19.634Z,100809.16
2022-10-28T07:47:47.141Z,100815.38
2022-10-28T07:50:14.554Z,100812.22
2022-10-28T07:52:41.709Z,100818.06
2022-10-28T07:55:11.025Z,100814.13
2022-10-28T07:57:38.318Z,100814.00
2022-10-28T08:00:07.351Z,100809.75
2022-10-28T08:02:42.126Z,100801.81
2022-10-28T08:05:10.032Z,100803.81
2022-10-28T08:07:38.743Z,100804.94
2022-10-28T08:10:07.191Z,100798.25
2022-10-28T08:12:34.637Z,100796.91
2022-10-28T08:15:02.845Z,100785.72
2022-10-28T08:17:30.430Z,100789.50
2022-10-28T08:19:57.920Z,100783.81
2022-10-28T08:22:25.221Z,100780.03
2022-10-28T08:24:52.679Z,100779.56
2022-10-28T08:27:19.824Z,100779.09
2022-10-28T08:29:47.208Z,100783.06
2022-10-28T08:32:14.392Z,100790.19
2022-10-28T08:34:43.994Z,100799.03
2022-10-28T08:37:11.466Z,100793.88
2022-10-28T08:39:38.854Z,100793.59
2022-10-28T08:42:09.123Z,100798.47
2022-10-28T08:44:55.588Z,100784.09
2022-10-28T08:50:37.946Z,100764.16
2022-10-28T08:53:15.241Z,100779.63
2022-10-28T08:55:50.028Z,100762.44
2022-10-28T08:58:38.815Z,100763.44
2022-10-28T09:01:14.198Z,100763.84
2022-10-28T09:03:45.332Z,100756.81
2022-10-28T09:06:12.801Z,100753.59
2022-10-28T09:08:46.670Z,100753.25
2022-10-28T09:11:24.801Z,100732.84
2022-10-28T09:14:03.480Z,100740.97
2022-10-28T09:16:48.930Z,100739.97
2022-10-28T09:19:31.917Z,100729.81
2022-10-28T09:22:08.571Z,100740.13
2022-10-28T09:24:53.012Z,100737.25
2022-10-28T09:28:02.010Z,100728.69
2022-10-28T09:30:44.710Z,100726.03
2022-10-28T09:33:57.856Z,100722.00
2022-10-28T09:36:35.687Z,100719.38
2022-10-28T09:39:05.743Z,100714.06
2022-10-28T09:41:37.695Z,100720.94
2022-10-28T09:44:18.572Z,100720.78
2022-10-28T09:46:52.736Z,100706.13
2022-10-28T09:49:28.497Z,100706.09
2022-10-28T09:52:15.200Z,100714.50
2022-10-28T09:54:51.528Z,100716.06
2022-10-28T09:57:29.196Z,100704.47
2022-10-28T09:59:56.751Z,100699.63
2022-10-28T10:02:27.783Z,100694.22
2022-10-28T10:04:57.543Z,100696.69
2022-10-28T10:07:48.163Z,100692.34
2022-10-28T10:10:31.470Z,100691.06
2022-10-28T10:13:04.491Z,100681.81
2022-10-28T10:15:46.631Z,100697.69
2022-10-28T10:18:20.014Z,100682.03
2022-10-28T10:20:50.788Z,100683.06
2022-10-28T10:23:24.195Z,100688.31
2022-10-28T10:26:13.588Z,100675.38
2022-10-28T10:28:49.142Z,100679.09
2022-10-28T10:31:25.563Z,100675.22
2022-10-28T10:33:56.178Z,100668.34
2022-10-28T10:36:29.670Z,100675.59
2022-10-28T10:38:59.170Z,100673.50
2022-10-28T10:41:55.274Z,100669.91
2022-10-28T10:44:22.535Z,100672.47
2022-10-28T10:47:06.547Z,100663.50
2022-10-28T10:49:37.768Z,100653.97
2022-10-28T10:52:15.930Z,100646.88
2022-10-28T10:54:56.626Z,100652.97
2022-10-28T10:57:28.849Z,100657.63
2022-10-28T10:59:59.586Z,100661.13
2022-10-28T11:02:40.090Z,100657.69
2022-10-28T11:05:09.976Z,100650.59
2022-10-28T11:07:45.232Z,100640.84
2022-10-28T11:10:27.675Z,100650.56
2022-10-28T11:13:26.139Z,100649.25
2022-10-28T11:16:04.865Z,100647.69
2022-10-28T11:18:43.864Z,100657.13
2022-10-28T11:21:32.326Z,100651.09
2022-10-28T11:24:08.984Z,100653.81
2022-10-28T11:26:45.158Z,100649.09
2022-10-28T11:29:15.768Z,100650.28
2022-10-28T11:31:50.994Z,100656.00
2022-10-28T11:34:36.858Z,100661.72
2022-10-28T11:37:09.563Z,100658.81
2022-10-28T11:39:46.056Z,100653.22
2022-10-28T11:42:35.056Z,100647.06
2022-10-28T11:45:14.611Z,100640.66
2022-10-28T11:48:00.162Z,100637.88
2022-10-28T11:50:45.969Z,100633.63
2022-10-28T11:53:31.659Z,100627.25
2022-10-28T11:56:11.311Z,100620.03
2022-10-28T11:59:00.265Z,100620.13
2022-10-28T12:01:44.864Z,100609.03
2022-10-28T12:04:42.387Z,100608.22
2022-10-28T12:07:22.075Z,100609.91
2022-10-28T12:09:59.507Z,100604.19
2022-10-28T12:12:29.924Z,100605.81
2022-10-28T12:15:34.406Z,100602.19
2022-10-28T12:18:11.418Z,100604.81
2022-10-28T12:20:59.711Z,100602.66
2022-10-28T12:23:29.593Z,100598.44
2022-10-28T12:25:59.298Z,100592.25
2022-10-28T12:28:42.412Z,100589.53
2022-10-28T12:31:22.955Z,100595.06
2022-10-28T12:33:55.811Z,100603.69
2022-10-28T12:36:38.488Z,100595.06
2022-10-28T12:39:18.530Z,100604.91
2022-10-28T12:42:10.125Z,100592.19
2022-10-28T12:44:38.858Z,100590.41
2022-10-28T12:47:23.935Z,100591.16
2022-10-28T12:49:57.081Z,100592.03
2022-10-28T12:52:42.388Z,100591.97
2022-10-28T12:55:39.920Z,100582.00
2022-10-28T12:58:24.236Z,100571.75
2022-10-28T13:00:57.440Z,100574.84
2022-10-28T13:03:24.658Z,100575.22
2022-10-28T13:06:06.022Z,100569.56
2022-10-28T13:09:04.375Z,100579.94
2022-10-28T13:11:43.700Z,100575.31
2022-10-28T13:14:29.669Z,100564.16
2022-10-28T13:16:59.864Z,100567.28
2022-10-28T13:19:51.086Z,100557.44
2022-10-28T13:22:30.525Z,100550.91
2022-10-28T13:25:39.286Z,100559.00
2022-10-28T13:28:13.792Z,100561.00
2022-10-28T13:30:59.385Z,100568.00
2022-10-28T13:33:28.759Z,100553.84
2022-10-28T13:36:18.007Z,100576.19
2022-10-28T13:39:06.942Z,100560.25
2022-10-28T13:41:40.954Z,100555.34
2022-10-28T13:44:10.813Z,100565.84
2022-10-28T13:46:59.998Z,100558.69
2022-10-28T13:49:31.168Z,100570.41
2022-10-28T13:52:07.309Z,100567.22
2022-10-28T13:54:43.775Z,100570.75
2022-10-28T13:57:26.663Z,100567.25
2022-10-28T14:00:04.423Z,100564.81
2022-10-28T14:02:56.665Z,100573.00
2022-10-28T14:05:47.155Z,100566.81
2022-10-28T14:08:35.570Z,100563.91
2022-10-28T14:11:24.058Z,100577.06
2022-10-28T14:13:59.953Z,100576.38
2022-10-28T14:16:34.077Z,100576.69
2022-10-28T14:19:21.379Z,100576.19
2022-10-28T14:22:02.285Z,100584.56
2022-10-28T14:24:32.977Z,100580.31
2022-10-28T14:27:10.002Z,100573.09
2022-10-28T14:29:50.653Z,100582.41
2022-10-28T14:32:33.161Z,100577.41
2022-10-28T14:35:15.524Z,100569.53
2022-10-28T14:37:48.970Z,100572.13
2022-10-28T14:40:38.673Z,100569.25
2022-10-28T14:43:11.189Z,100556.78
2022-10-28T14:45:50.561Z,100574.28
2022-10-28T14:48:44.205Z,100565.88
2022-10-28T14:51:24.493Z,100570.03
2022-10-28T14:53:58.892Z,100579.19
2022-10-28T14:56:29.838Z,100570.41
2022-10-28T14:59:36.766Z,100566.53
2022-10-28T15:02:17.800Z,100573.38
2022-10-28T15:04:47.452Z,100559.34
2022-10-28T15:07:17.738Z,100570.88
2022-10-28T15:09:48.879Z,100557.16
2022-10-28T15:12:18.007Z,100565.84
2022-10-28T15:14:47.901Z,100569.38
2022-10-28T15:17:18.693Z,100573.97
2022-10-28T15:19:49.410Z,100568.41
2022-10-28T15:22:30.836Z,100568.75
2022-10-28T15:24:59.385Z,100558.41
2022-10-28T15:27:29.908Z,100555.38
2022-10-28T15:29:57.986Z,100554.69
2022-10-28T15:32:29.737Z,100556.56
2022-10-28T15:34:57.706Z,100547.94
2022-10-28T15:37:36.601Z,100562.00
2022-10-28T15:40:40.848Z,100553.34
2022-10-28T15:43:26.560Z,100557.22
2022-10-28T15:45:54.388Z,100548.28
2022-10-28T15:48:27.317Z,100552.66
2022-10-28T15:51:17.773Z,100543.16
2022-10-28T15:53:53.925Z,100539.41
2022-10-28T15:56:29.906Z,100536.69
2022-10-28T15:59:07.196Z,100543.06
2022-10-28T16:01:35.410Z,100545.78
2022-10-28T16:04:02.793Z,100546.16
2022-10-28T16:06:32.698Z,100539.41
2022-10-28T16:09:20.137Z,100545.84
2022-10-28T16:11:56.298Z,100542.38
2022-10-28T16:14:39.660Z,100548.63
2022-10-28T16:17:20.105Z,100545.63
2022-10-28T16:20:15.373Z,100549.84
2022-10-28T16:22:46.710Z,100540.00
2022-10-28T16:25:16.845Z,100539.06
2022-10-28T16:27:44.300Z,100535.03
2022-10-28T16:30:12.015Z,100539.50
2022-10-28T16:32:49.632Z,100546.41
2022-10-28T16:35:19.143Z,100532.72
2022-10-28T16:37:50.679Z,100531.22
2022-10-28T16:43:15.362Z,100540.28
2022-10-28T16:45:42.575Z,100542.94
2022-10-28T16:48:13.847Z,100532.69
2022-10-28T16:50:42.920Z,100543.53
2022-10-28T16:53:12.958Z,100534.66
2022-10-28T16:55:40.750Z,100533.34
2022-10-28T16:58:08.296Z,100527.53
2022-10-28T17:00:36.403Z,100526.50
2022-10-28T17:03:04.120Z,100528.94
2022-10-28T17:05:31.628Z,100518.13
2022-10-28T17:07:59.933Z,100510.88
2022-10-28T17:10:27.682Z,100516.03
2022-10-28T17:12:55.593Z,100517.88
2022-10-28T17:15:23.386Z,100519.13
2022-10-28T17:17:52.329Z,100523.19
2022-10-28T17:20:19.968Z,100519.63
2022-10-28T17:22:47.809Z,100514.41
2022-10-28T17:25:15.114Z,100518.00
2022-10-28T17:27:42.915Z,100515.75
2022-10-28T17:30:10.708Z,100516.59
2022-10-28T17:32:38.145Z,100519.56
2022-10-28T17:35:05.623Z,100517.84
2022-10-28T17:37:33.813Z,100513.94
2022-10-28T17:40:01.169Z,100529.28
2022-10-28T17:42:29.092Z,100525.69
2022-10-28T17:44:56.386Z,100517.44
2022-10-28T17:47:23.813Z,100505.97
2022-10-28T17:49:51.010Z,100512.16
2022-10-28T17:52:18.470Z,100513.38
2022-10-28T17:54:46.131Z,100502.19
2022-10-28T17:57:13.569Z,100502.59
2022-10-28T17:59:40.813Z,100501.81
2022-10-28T18:02:12.677Z,100513.94
2022-10-28T18:04:40.765Z,100506.63
2022-10-28T18:07:08.451Z,100501.91
2022-10-28T18:09:35.685Z,100505.53
2022-10-28T18:12:03.168Z,100491.16
2022-10-28T18:14:30.701Z,100486.00
2022-10-28T18:16:58.131Z,100489.94
2022-10-28T18:19:25.442Z,100479.84
2022-10-28T18:21:52.816Z,100474.38
2022-10-28T18:24:23.328Z,100472.97
2022-10-28T18:26:54.458Z,100467.75
2022-10-28T18:29:21.767Z,100457.19
2022-10-28T18:31:49.278Z,100455.72
2022-10-28T18:34:16.657Z,100464.59
2022-10-28T18:36:44.195Z,100453.69
2022-10-28T18:39:11.414Z,100441.22
2022-10-28T18:41:42.014Z,100447.84
2022-10-28T18:44:12.161Z,100449.78
2022-10-28T18:46:40.310Z,100450.66
2022-10-28T18:49:07.632Z,100439.91
2022-10-28T18:51:35.701Z,100447.84
2022-10-28T18:54:03.589Z,100437.16
2022-10-28T18:56:30.859Z,100445.00
2022-10-28T18:58:58.937Z,100446.09
2022-10-28T19:01:28.739Z,100448.41
2022-10-28T19:03:58.350Z,100433.19
2022-10-28T19:06:29.959Z,100441.81
2022-10-28T19:08:59.574Z,100439.59
2022-10-28T19:11:30.401Z,100439.13
2022-10-28T19:14:00.249Z,100430.03
2022-10-28T19:16:28.608Z,100434.44
2022-10-28T19:18:57.296Z,100424.25
2022-10-28T19:21:25.670Z,100430.97
2022-10-28T19:23:52.999Z,100428.16
2022-10-28T19:26:20.838Z,100425.75
2022-10-28T19:28:49.338Z,100425.63
2022-10-28T19:31:19.535Z,100426.94
2022-10-28T19:33:46.852Z,100417.78
2022-10-28T19:36:18.816Z,100430.00
2022-10-28T19:38:46.803Z,100423.47
2022-10-28T19:41:16.464Z,100413.00
2022-10-28T19:43:44.909Z,100416.19
2022-10-28T19:46:18.551Z,100407.44
2022-10-28T19:48:48.111Z,100418.41
2022-10-28T19:51:18.041Z,100409.84
2022-10-28T19:53:48.939Z,100416.38
2022-10-28T19:56:19.424Z,100414.69
2022-10-28T19:58:51.431Z,100410.91
2022-10-28T20:01:19.795Z,100411.44
2022-10-28T20:03:49.419Z,100416.28
2022-10-28T20:06:19.232Z,100409.34
2022-10-28T20:08:48.152Z,100416.00
2022-10-28T20:11:21.382Z,100410.38
2022-10-28T20:13:54.009Z,100406.44
2022-10-28T20:16:21.695Z,100404.00
2022-10-28T20:18:49.208Z,100395.03
2022-10-28T20:21:18.922Z,100401.38
2022-10-28T20:26:23.786Z,100406.06
2022-10-28T20:28:51.043Z,100403.19
2022-10-28T20:31:21.042Z,100398.91
2022-10-28T20:33:56.868Z,100391.66
2022-10-28T20:36:32.690Z,100390.97
2022-10-28T20:39:09.674Z,100386.06
2022-10-28T20:41:38.586Z,100392.06
2022-10-28T20:44:06.584Z,100389.06
2022-10-28T20:46:34.677Z,100386.59
2022-10-28T20:49:02.955Z,100385.69
2022-10-28T20:51:31.737Z,100396.47
2022-10-28T20:53:59.969Z,100389.31
2022-10-28T20:56:29.755Z,100385.13
2022-10-28T20:59:00.378Z,100382.19
2022-10-28T21:01:45.926Z,100378.19
2022-10-28T21:04:13.785Z,100381.91
2022-10-28T21:06:41.067Z,100388.13
2022-10-28T21:09:09.035Z,100378.56
2022-10-28T21:11:36.254Z,100379.34
2022-10-28T21:14:03.743Z,100381.28
2022-10-28T21:16:31.419Z,100377.38
2022-10-28T21:19:02.324Z,100368.16
2022-10-28T21:21:30.348Z,100367.88
2022-10-28T21:24:00.464Z,100371.53
2022-10-28T21:26:27.792Z,100370.28
2022-10-28T21:28:56.497Z,100367.50
2022-10-28T21:31:24.779Z,100366.31
2022-10-28T21:33:53.431Z,100360.53
2022-10-28T21:36:21.944Z,100357.53
2022-10-28T21:38:54.316Z,100360.31
2022-10-28T21:41:22.611Z,100358.28
2022-10-28T21:43:51.694Z,100351.38
2022-10-28T21:46:20.352Z,100348.34
2022-10-28T21:48:48.054Z,100358.13
2022-10-28T21:51:16.806Z,100353.41
2022-10-28T21:53:45.226Z,100351.91
2022-10-28T21:56:19.039Z,100341.09
2022-10-28T21:58:48.443Z,100347.69
2022-10-28T22:01:21.293Z,100353.97
2022-10-28T22:03:49.291Z,100351.94
2022-10-28T22:06:16.583Z,100348.22
2022-10-28T22:08:44.275Z,100335.34
2022-10-28T22:11:17.231Z,100338.59
2022-10-28T22:13:45.137Z,100342.97
2022-10-28T22:16:14.958Z,100342.13
2022-10-28T22:18:42.660Z,100340.47
2022-10-28T22:21:11.859Z,100339.59
2022-10-28T22:23:39.240Z,100338.06
2022-10-28T22:26:09.053Z,100328.59
2022-10-28T22:28:37.019Z,100330.13
2022-10-28T22:31:07.657Z,100336.72
2022-10-28T22:33:35.821Z,100335.88
2022-10-28T22:36:14.961Z,100320.47
2022-10-28T22:38:42.797Z,100329.59
2022-10-28T22:41:14.845Z,100327.38
2022-10-28T22:43:42.826Z,100330.94
2022-10-28T22:46:11.075Z,100316.84
2022-10-28T22:48:38.522Z,100328.53
2022-10-28T22:51:06.385Z,100326.16
2022-10-28T22:53:33.652Z,100325.09
2022-10-28T22:56:01.383Z,100318.34
2022-10-28T22:58:28.789Z,100316.47
2022-10-28T23:01:17.363Z,100329.84
2022-10-28T23:03:48.348Z,100320.59
2022-10-28T23:06:19.285Z,100321.09
2022-10-28T23:08:47.237Z,100324.63
2022-10-28T23:11:15.671Z,100310.75
2022-10-28T23:13:43.152Z,100315.47
2022-10-28T23:16:12.925Z,100331.81
2022-10-28T23:18:41.136Z,100319.19
2022-10-28T23:21:18.453Z,100320.03
2022-10-28T23:23:51.096Z,100309.22
2022-10-28T23:26:21.587Z,100294.97
2022-10-28T23:28:54.076Z,100303.44
2022-10-28T23:31:22.530Z,100291.22
2022-10-28T23:33:50.434Z,100308.34
2022-10-28T23:36:17.882Z,100302.94
2022-10-28T23:38:45.144Z,100302.13
2022-10-28T23:41:18.647Z,100308.03
2022-10-28T23:43:47.069Z,100304.28
2022-10-28T23:46:14.611Z,100303.09
2022-10-28T23:48:41.783Z,100300.59
2022-10-28T23:51:09.461Z,100284.75
2022-10-28T23:53:36.867Z,100290.66
2022-10-28T23:56:04.478Z,100282.72
2022-10-28T23:58:31.652Z,100280.84
